Euclides da Cunha Paulista, Brazil
Current Conditions -  °F | °C
As of 9:00 PM on Tuesday 27 Jan 2015 (Local Time) from SBMG Reporting Station
Light Rain Light Rain  
Wind Chill: 73°   Ceiling: 3500
Heat Index: 73°   Visibility: 5mi
Dew Point: 70°   Wind: 10mph
Humidity: 88%   Direction: 50°NE
Pressure: 29.91"   Gusts: NA
Location:  22.56°S, 52.59°W
Report Text: SBMG 272300Z 05009KT 8000 -RA FEW020 BKN035 FEW040TCU 23/21 Q1013 RERA
Loading
Personal Weather Stations






























Interactive Weather Map New forecast layout! Learn more

10-Day Weather Forecast

Advertisements
Track Severe Weather on mobile